<?xml version="1.0" encoding="UTF-8" ?>
<gpx version="1.1" xmlns:xsi="http://www.w3.org/2001/XMLSchema-instance" 
    xmlns="http://www.topografix.com/GPX/1/1" 
    xsi:schemaLocation="http://www.topografix.com/GPX/1/1 http://www.topografix.com/GPX/1/1/gpx.xsd" 
    creator="Openrunner - https://www.openrunner.com" >	<trk>
						<name>3-Pierre-Grosse_Saint-Véran</name>
						<trkseg>
					<trkpt lat="44.724800" lon="6.865550">
						<ele>1913</ele>
						<time>2022-01-06T16:03:44Z</time>
					</trkpt>
					<trkpt lat="44.724740" lon="6.866110">
						<ele>1910</ele>
						<time>2022-01-06T16:04:38Z</time>
					</trkpt>
					<trkpt lat="44.724730" lon="6.866430">
						<ele>1909</ele>
						<time>2022-01-06T16:05:08Z</time>
					</trkpt>
					<trkpt lat="44.724700" lon="6.866750">
						<ele>1909</ele>
						<time>2022-01-06T16:05:39Z</time>
					</trkpt>
					<trkpt lat="44.724640" lon="6.867060">
						<ele>1908</ele>
						<time>2022-01-06T16:06:09Z</time>
					</trkpt>
					<trkpt lat="44.724510" lon="6.867320">
						<ele>1907</ele>
						<time>2022-01-06T16:06:39Z</time>
					</trkpt>
					<trkpt lat="44.724280" lon="6.867370">
						<ele>1903</ele>
						<time>2022-01-06T16:07:10Z</time>
					</trkpt>
					<trkpt lat="44.724050" lon="6.867370">
						<ele>1904</ele>
						<time>2022-01-06T16:07:41Z</time>
					</trkpt>
					<trkpt lat="44.723900" lon="6.867120">
						<ele>1907</ele>
						<time>2022-01-06T16:08:12Z</time>
					</trkpt>
					<trkpt lat="44.723900" lon="6.866790">
						<ele>1906</ele>
						<time>2022-01-06T16:08:43Z</time>
					</trkpt>
					<trkpt lat="44.723900" lon="6.866470">
						<ele>1906</ele>
						<time>2022-01-06T16:09:14Z</time>
					</trkpt>
					<trkpt lat="44.723840" lon="6.866150">
						<ele>1907</ele>
						<time>2022-01-06T16:09:45Z</time>
					</trkpt>
					<trkpt lat="44.723870" lon="6.865970">
						<ele>1906</ele>
						<time>2022-01-06T16:10:03Z</time>
					</trkpt>
					<trkpt lat="44.723770" lon="6.865670">
						<ele>1909</ele>
						<time>2022-01-06T16:10:34Z</time>
					</trkpt>
					<trkpt lat="44.723660" lon="6.865380">
						<ele>1911</ele>
						<time>2022-01-06T16:11:05Z</time>
					</trkpt>
					<trkpt lat="44.723530" lon="6.865120">
						<ele>1913</ele>
						<time>2022-01-06T16:11:35Z</time>
					</trkpt>
					<trkpt lat="44.723460" lon="6.864810">
						<ele>1912</ele>
						<time>2022-01-06T16:12:06Z</time>
					</trkpt>
					<trkpt lat="44.723400" lon="6.864540">
						<ele>1910</ele>
						<time>2022-01-06T16:12:33Z</time>
					</trkpt>
					<trkpt lat="44.723430" lon="6.864330">
						<ele>1908</ele>
						<time>2022-01-06T16:12:53Z</time>
					</trkpt>
					<trkpt lat="44.723350" lon="6.864060">
						<ele>1906</ele>
						<time>2022-01-06T16:13:21Z</time>
					</trkpt>
					<trkpt lat="44.723370" lon="6.863840">
						<ele>1904</ele>
						<time>2022-01-06T16:13:42Z</time>
					</trkpt>
					<trkpt lat="44.723470" lon="6.863480">
						<ele>1901</ele>
						<time>2022-01-06T16:14:19Z</time>
					</trkpt>
					<trkpt lat="44.723570" lon="6.863120">
						<ele>1899</ele>
						<time>2022-01-06T16:14:55Z</time>
					</trkpt>
					<trkpt lat="44.723710" lon="6.862500">
						<ele>1897</ele>
						<time>2022-01-06T16:15:57Z</time>
					</trkpt>
					<trkpt lat="44.723730" lon="6.862170">
						<ele>1897</ele>
						<time>2022-01-06T16:16:28Z</time>
					</trkpt>
					<trkpt lat="44.723830" lon="6.861910">
						<ele>1896</ele>
						<time>2022-01-06T16:16:56Z</time>
					</trkpt>
					<trkpt lat="44.724010" lon="6.861800">
						<ele>1893</ele>
						<time>2022-01-06T16:17:23Z</time>
					</trkpt>
					<trkpt lat="44.724080" lon="6.861560">
						<ele>1892</ele>
						<time>2022-01-06T16:17:47Z</time>
					</trkpt>
					<trkpt lat="44.724040" lon="6.861270">
						<ele>1891</ele>
						<time>2022-01-06T16:18:15Z</time>
					</trkpt>
					<trkpt lat="44.723940" lon="6.861020">
						<ele>1891</ele>
						<time>2022-01-06T16:18:42Z</time>
					</trkpt>
					<trkpt lat="44.723790" lon="6.860880">
						<ele>1893</ele>
						<time>2022-01-06T16:19:06Z</time>
					</trkpt>
					<trkpt lat="44.723700" lon="6.860700">
						<ele>1894</ele>
						<time>2022-01-06T16:19:27Z</time>
					</trkpt>
					<trkpt lat="44.723520" lon="6.860520">
						<ele>1895</ele>
						<time>2022-01-06T16:19:57Z</time>
					</trkpt>
					<trkpt lat="44.723450" lon="6.860200">
						<ele>1894</ele>
						<time>2022-01-06T16:20:29Z</time>
					</trkpt>
					<trkpt lat="44.723370" lon="6.859890">
						<ele>1892</ele>
						<time>2022-01-06T16:21:00Z</time>
					</trkpt>
					<trkpt lat="44.723280" lon="6.859590">
						<ele>1889</ele>
						<time>2022-01-06T16:21:31Z</time>
					</trkpt>
					<trkpt lat="44.723140" lon="6.859330">
						<ele>1890</ele>
						<time>2022-01-06T16:22:02Z</time>
					</trkpt>
					<trkpt lat="44.722990" lon="6.859080">
						<ele>1891</ele>
						<time>2022-01-06T16:22:33Z</time>
					</trkpt>
					<trkpt lat="44.722790" lon="6.858910">
						<ele>1894</ele>
						<time>2022-01-06T16:23:04Z</time>
					</trkpt>
					<trkpt lat="44.722690" lon="6.858610">
						<ele>1891</ele>
						<time>2022-01-06T16:23:35Z</time>
					</trkpt>
					<trkpt lat="44.722620" lon="6.858300">
						<ele>1887</ele>
						<time>2022-01-06T16:24:06Z</time>
					</trkpt>
					<trkpt lat="44.722570" lon="6.857980">
						<ele>1882</ele>
						<time>2022-01-06T16:24:37Z</time>
					</trkpt>
					<trkpt lat="44.722430" lon="6.857720">
						<ele>1879</ele>
						<time>2022-01-06T16:25:08Z</time>
					</trkpt>
					<trkpt lat="44.722280" lon="6.857470">
						<ele>1876</ele>
						<time>2022-01-06T16:25:39Z</time>
					</trkpt>
					<trkpt lat="44.722050" lon="6.857380">
						<ele>1878</ele>
						<time>2022-01-06T16:26:11Z</time>
					</trkpt>
					<trkpt lat="44.721830" lon="6.857290">
						<ele>1880</ele>
						<time>2022-01-06T16:26:42Z</time>
					</trkpt>
					<trkpt lat="44.721670" lon="6.857040">
						<ele>1880</ele>
						<time>2022-01-06T16:27:13Z</time>
					</trkpt>
					<trkpt lat="44.721470" lon="6.856860">
						<ele>1883</ele>
						<time>2022-01-06T16:27:45Z</time>
					</trkpt>
					<trkpt lat="44.721120" lon="6.856470">
						<ele>1886</ele>
						<time>2022-01-06T16:28:45Z</time>
					</trkpt>
					<trkpt lat="44.720950" lon="6.856250">
						<ele>1885</ele>
						<time>2022-01-06T16:29:16Z</time>
					</trkpt>
					<trkpt lat="44.720740" lon="6.856100">
						<ele>1886</ele>
						<time>2022-01-06T16:29:47Z</time>
					</trkpt>
					<trkpt lat="44.720580" lon="6.855870">
						<ele>1883</ele>
						<time>2022-01-06T16:30:17Z</time>
					</trkpt>
					<trkpt lat="44.720370" lon="6.855740">
						<ele>1882</ele>
						<time>2022-01-06T16:30:48Z</time>
					</trkpt>
					<trkpt lat="44.720150" lon="6.855690">
						<ele>1883</ele>
						<time>2022-01-06T16:31:18Z</time>
					</trkpt>
					<trkpt lat="44.719910" lon="6.855690">
						<ele>1887</ele>
						<time>2022-01-06T16:31:50Z</time>
					</trkpt>
					<trkpt lat="44.719720" lon="6.855520">
						<ele>1887</ele>
						<time>2022-01-06T16:32:20Z</time>
					</trkpt>
					<trkpt lat="44.719550" lon="6.855310">
						<ele>1885</ele>
						<time>2022-01-06T16:32:50Z</time>
					</trkpt>
					<trkpt lat="44.719270" lon="6.854810">
						<ele>1877</ele>
						<time>2022-01-06T16:33:50Z</time>
					</trkpt>
					<trkpt lat="44.719140" lon="6.854550">
						<ele>1874</ele>
						<time>2022-01-06T16:34:21Z</time>
					</trkpt>
					<trkpt lat="44.718990" lon="6.854300">
						<ele>1870</ele>
						<time>2022-01-06T16:34:52Z</time>
					</trkpt>
					<trkpt lat="44.718860" lon="6.854030">
						<ele>1865</ele>
						<time>2022-01-06T16:35:23Z</time>
					</trkpt>
					<trkpt lat="44.718700" lon="6.853800">
						<ele>1862</ele>
						<time>2022-01-06T16:35:53Z</time>
					</trkpt>
					<trkpt lat="44.718540" lon="6.853570">
						<ele>1858</ele>
						<time>2022-01-06T16:36:24Z</time>
					</trkpt>
					<trkpt lat="44.718350" lon="6.853380">
						<ele>1855</ele>
						<time>2022-01-06T16:36:55Z</time>
					</trkpt>
					<trkpt lat="44.718160" lon="6.853200">
						<ele>1854</ele>
						<time>2022-01-06T16:37:25Z</time>
					</trkpt>
					<trkpt lat="44.717760" lon="6.852890">
						<ele>1851</ele>
						<time>2022-01-06T16:38:26Z</time>
					</trkpt>
					<trkpt lat="44.717580" lon="6.852680">
						<ele>1847</ele>
						<time>2022-01-06T16:38:57Z</time>
					</trkpt>
					<trkpt lat="44.717140" lon="6.852480">
						<ele>1845</ele>
						<time>2022-01-06T16:39:59Z</time>
					</trkpt>
					<trkpt lat="44.716910" lon="6.852390">
						<ele>1845</ele>
						<time>2022-01-06T16:40:31Z</time>
					</trkpt>
					<trkpt lat="44.716730" lon="6.852200">
						<ele>1843</ele>
						<time>2022-01-06T16:41:01Z</time>
					</trkpt>
					<trkpt lat="44.716450" lon="6.851690">
						<ele>1833</ele>
						<time>2022-01-06T16:42:02Z</time>
					</trkpt>
					<trkpt lat="44.716260" lon="6.851530">
						<ele>1830</ele>
						<time>2022-01-06T16:42:32Z</time>
					</trkpt>
					<trkpt lat="44.716050" lon="6.851390">
						<ele>1827</ele>
						<time>2022-01-06T16:43:03Z</time>
					</trkpt>
					<trkpt lat="44.715850" lon="6.851260">
						<ele>1826</ele>
						<time>2022-01-06T16:43:32Z</time>
					</trkpt>
					<trkpt lat="44.715620" lon="6.851380">
						<ele>1827</ele>
						<time>2022-01-06T16:44:05Z</time>
					</trkpt>
					<trkpt lat="44.715420" lon="6.851530">
						<ele>1829</ele>
						<time>2022-01-06T16:44:35Z</time>
					</trkpt>
					<trkpt lat="44.715230" lon="6.851730">
						<ele>1833</ele>
						<time>2022-01-06T16:45:07Z</time>
					</trkpt>
					<trkpt lat="44.714610" lon="6.851740">
						<ele>1834</ele>
						<time>2022-01-06T16:46:29Z</time>
					</trkpt>
					<trkpt lat="44.714150" lon="6.851620">
						<ele>1830</ele>
						<time>2022-01-06T16:47:32Z</time>
					</trkpt>
					<trkpt lat="44.713920" lon="6.851190">
						<ele>1820</ele>
						<time>2022-01-06T16:48:23Z</time>
					</trkpt>
					<trkpt lat="44.713890" lon="6.850860">
						<ele>1812</ele>
						<time>2022-01-06T16:48:54Z</time>
					</trkpt>
					<trkpt lat="44.713660" lon="6.850860">
						<ele>1812</ele>
						<time>2022-01-06T16:49:25Z</time>
					</trkpt>
					<trkpt lat="44.713430" lon="6.850890">
						<ele>1813</ele>
						<time>2022-01-06T16:49:56Z</time>
					</trkpt>
					<trkpt lat="44.713200" lon="6.850930">
						<ele>1814</ele>
						<time>2022-01-06T16:50:27Z</time>
					</trkpt>
					<trkpt lat="44.712960" lon="6.850960">
						<ele>1816</ele>
						<time>2022-01-06T16:50:59Z</time>
					</trkpt>
					<trkpt lat="44.712750" lon="6.850810">
						<ele>1812</ele>
						<time>2022-01-06T16:51:31Z</time>
					</trkpt>
					<trkpt lat="44.712460" lon="6.850150">
						<ele>1794</ele>
						<time>2022-01-06T16:52:44Z</time>
					</trkpt>
					<trkpt lat="44.712680" lon="6.850080">
						<ele>1793</ele>
						<time>2022-01-06T16:53:14Z</time>
					</trkpt>
					<trkpt lat="44.712900" lon="6.849990">
						<ele>1791</ele>
						<time>2022-01-06T16:53:45Z</time>
					</trkpt>
					<trkpt lat="44.713130" lon="6.849920">
						<ele>1790</ele>
						<time>2022-01-06T16:54:16Z</time>
					</trkpt>
					<trkpt lat="44.712950" lon="6.849690">
						<ele>1784</ele>
						<time>2022-01-06T16:54:49Z</time>
					</trkpt>
					<trkpt lat="44.712720" lon="6.849700">
						<ele>1785</ele>
						<time>2022-01-06T16:55:19Z</time>
					</trkpt>
					<trkpt lat="44.712490" lon="6.849660">
						<ele>1784</ele>
						<time>2022-01-06T16:55:50Z</time>
					</trkpt>
					<trkpt lat="44.711820" lon="6.849430">
						<ele>1775</ele>
						<time>2022-01-06T16:57:22Z</time>
					</trkpt>
					<trkpt lat="44.711600" lon="6.849450">
						<ele>1775</ele>
						<time>2022-01-06T16:57:52Z</time>
					</trkpt>
					<trkpt lat="44.711210" lon="6.849120">
						<ele>1769</ele>
						<time>2022-01-06T16:58:52Z</time>
					</trkpt>
					<trkpt lat="44.711190" lon="6.848790">
						<ele>1767</ele>
						<time>2022-01-06T16:59:24Z</time>
					</trkpt>
					<trkpt lat="44.711190" lon="6.848460">
						<ele>1765</ele>
						<time>2022-01-06T16:59:55Z</time>
					</trkpt>
					<trkpt lat="44.711170" lon="6.848130">
						<ele>1765</ele>
						<time>2022-01-06T17:00:27Z</time>
					</trkpt>
					<trkpt lat="44.710950" lon="6.848200">
						<ele>1765</ele>
						<time>2022-01-06T17:00:57Z</time>
					</trkpt>
					<trkpt lat="44.710740" lon="6.848340">
						<ele>1766</ele>
						<time>2022-01-06T17:01:28Z</time>
					</trkpt>
					<trkpt lat="44.710560" lon="6.848550">
						<ele>1768</ele>
						<time>2022-01-06T17:01:59Z</time>
					</trkpt>
					<trkpt lat="44.710340" lon="6.848690">
						<ele>1769</ele>
						<time>2022-01-06T17:02:31Z</time>
					</trkpt>
					<trkpt lat="44.710110" lon="6.848690">
						<ele>1771</ele>
						<time>2022-01-06T17:03:02Z</time>
					</trkpt>
					<trkpt lat="44.709890" lon="6.848620">
						<ele>1771</ele>
						<time>2022-01-06T17:03:32Z</time>
					</trkpt>
					<trkpt lat="44.709670" lon="6.848510">
						<ele>1772</ele>
						<time>2022-01-06T17:04:03Z</time>
					</trkpt>
					<trkpt lat="44.709450" lon="6.848430">
						<ele>1773</ele>
						<time>2022-01-06T17:04:33Z</time>
					</trkpt>
					<trkpt lat="44.709230" lon="6.848350">
						<ele>1775</ele>
						<time>2022-01-06T17:05:04Z</time>
					</trkpt>
					<trkpt lat="44.709010" lon="6.848480">
						<ele>1776</ele>
						<time>2022-01-06T17:05:36Z</time>
					</trkpt>
					<trkpt lat="44.708830" lon="6.848690">
						<ele>1776</ele>
						<time>2022-01-06T17:06:07Z</time>
					</trkpt>
					<trkpt lat="44.708640" lon="6.848860">
						<ele>1777</ele>
						<time>2022-01-06T17:06:37Z</time>
					</trkpt>
					<trkpt lat="44.708430" lon="6.849010">
						<ele>1778</ele>
						<time>2022-01-06T17:07:08Z</time>
					</trkpt>
					<trkpt lat="44.708240" lon="6.849210">
						<ele>1779</ele>
						<time>2022-01-06T17:07:40Z</time>
					</trkpt>
					<trkpt lat="44.708020" lon="6.849280">
						<ele>1780</ele>
						<time>2022-01-06T17:08:10Z</time>
					</trkpt>
					<trkpt lat="44.707790" lon="6.849350">
						<ele>1782</ele>
						<time>2022-01-06T17:08:41Z</time>
					</trkpt>
					<trkpt lat="44.707570" lon="6.849390">
						<ele>1783</ele>
						<time>2022-01-06T17:09:11Z</time>
					</trkpt>
					<trkpt lat="44.707350" lon="6.849470">
						<ele>1784</ele>
						<time>2022-01-06T17:09:41Z</time>
					</trkpt>
					<trkpt lat="44.707130" lon="6.849610">
						<ele>1786</ele>
						<time>2022-01-06T17:10:13Z</time>
					</trkpt>
					<trkpt lat="44.706950" lon="6.849800">
						<ele>1785</ele>
						<time>2022-01-06T17:10:44Z</time>
					</trkpt>
					<trkpt lat="44.706750" lon="6.849960">
						<ele>1785</ele>
						<time>2022-01-06T17:11:14Z</time>
					</trkpt>
					<trkpt lat="44.706530" lon="6.850100">
						<ele>1788</ele>
						<time>2022-01-06T17:11:46Z</time>
					</trkpt>
					<trkpt lat="44.706130" lon="6.850420">
						<ele>1793</ele>
						<time>2022-01-06T17:12:48Z</time>
					</trkpt>
					<trkpt lat="44.705920" lon="6.850560">
						<ele>1795</ele>
						<time>2022-01-06T17:13:19Z</time>
					</trkpt>
					<trkpt lat="44.705740" lon="6.850760">
						<ele>1794</ele>
						<time>2022-01-06T17:13:49Z</time>
					</trkpt>
					<trkpt lat="44.705560" lon="6.850980">
						<ele>1795</ele>
						<time>2022-01-06T17:14:21Z</time>
					</trkpt>
					<trkpt lat="44.705340" lon="6.850980">
						<ele>1797</ele>
						<time>2022-01-06T17:14:51Z</time>
					</trkpt>
					<trkpt lat="44.705100" lon="6.850980">
						<ele>1800</ele>
						<time>2022-01-06T17:15:23Z</time>
					</trkpt>
					<trkpt lat="44.704880" lon="6.851040">
						<ele>1801</ele>
						<time>2022-01-06T17:15:53Z</time>
					</trkpt>
					<trkpt lat="44.704660" lon="6.851170">
						<ele>1802</ele>
						<time>2022-01-06T17:16:24Z</time>
					</trkpt>
					<trkpt lat="44.704450" lon="6.851300">
						<ele>1803</ele>
						<time>2022-01-06T17:16:55Z</time>
					</trkpt>
					<trkpt lat="44.704260" lon="6.851500">
						<ele>1804</ele>
						<time>2022-01-06T17:17:27Z</time>
					</trkpt>
					<trkpt lat="44.704060" lon="6.851670">
						<ele>1805</ele>
						<time>2022-01-06T17:17:58Z</time>
					</trkpt>
					<trkpt lat="44.703990" lon="6.851980">
						<ele>1805</ele>
						<time>2022-01-06T17:18:29Z</time>
					</trkpt>
					<trkpt lat="44.703770" lon="6.852090">
						<ele>1809</ele>
						<time>2022-01-06T17:19:00Z</time>
					</trkpt>
					<trkpt lat="44.703560" lon="6.852210">
						<ele>1812</ele>
						<time>2022-01-06T17:19:30Z</time>
					</trkpt>
					<trkpt lat="44.703360" lon="6.852340">
						<ele>1816</ele>
						<time>2022-01-06T17:20:00Z</time>
					</trkpt>
					<trkpt lat="44.703130" lon="6.852430">
						<ele>1819</ele>
						<time>2022-01-06T17:20:31Z</time>
					</trkpt>
					<trkpt lat="44.702900" lon="6.852500">
						<ele>1822</ele>
						<time>2022-01-06T17:21:03Z</time>
					</trkpt>
					<trkpt lat="44.702700" lon="6.852630">
						<ele>1824</ele>
						<time>2022-01-06T17:21:32Z</time>
					</trkpt>
					<trkpt lat="44.702520" lon="6.852840">
						<ele>1826</ele>
						<time>2022-01-06T17:22:03Z</time>
					</trkpt>
					<trkpt lat="44.702320" lon="6.852990">
						<ele>1828</ele>
						<time>2022-01-06T17:22:34Z</time>
					</trkpt>
					<trkpt lat="44.702110" lon="6.853140">
						<ele>1831</ele>
						<time>2022-01-06T17:23:05Z</time>
					</trkpt>
					<trkpt lat="44.701890" lon="6.853200">
						<ele>1834</ele>
						<time>2022-01-06T17:23:35Z</time>
					</trkpt>
					<trkpt lat="44.701670" lon="6.853290">
						<ele>1837</ele>
						<time>2022-01-06T17:24:06Z</time>
					</trkpt>
					<trkpt lat="44.701450" lon="6.853390">
						<ele>1841</ele>
						<time>2022-01-06T17:24:36Z</time>
					</trkpt>
					<trkpt lat="44.701220" lon="6.853400">
						<ele>1844</ele>
						<time>2022-01-06T17:25:07Z</time>
					</trkpt>
					<trkpt lat="44.701000" lon="6.853520">
						<ele>1848</ele>
						<time>2022-01-06T17:25:39Z</time>
					</trkpt>
					<trkpt lat="44.700780" lon="6.853630">
						<ele>1851</ele>
						<time>2022-01-06T17:26:10Z</time>
					</trkpt>
					<trkpt lat="44.700560" lon="6.853700">
						<ele>1856</ele>
						<time>2022-01-06T17:26:40Z</time>
					</trkpt>
					<trkpt lat="44.700330" lon="6.853680">
						<ele>1861</ele>
						<time>2022-01-06T17:27:11Z</time>
					</trkpt>
					<trkpt lat="44.700180" lon="6.853910">
						<ele>1861</ele>
						<time>2022-01-06T17:27:40Z</time>
					</trkpt>
					<trkpt lat="44.700130" lon="6.854220">
						<ele>1858</ele>
						<time>2022-01-06T17:28:10Z</time>
					</trkpt>
					<trkpt lat="44.700140" lon="6.854550">
						<ele>1858</ele>
						<time>2022-01-06T17:28:42Z</time>
					</trkpt>
					<trkpt lat="44.700100" lon="6.854880">
						<ele>1858</ele>
						<time>2022-01-06T17:29:13Z</time>
					</trkpt>
					<trkpt lat="44.700020" lon="6.855180">
						<ele>1859</ele>
						<time>2022-01-06T17:29:44Z</time>
					</trkpt>
					<trkpt lat="44.699840" lon="6.855400">
						<ele>1859</ele>
						<time>2022-01-06T17:30:16Z</time>
					</trkpt>
					<trkpt lat="44.699670" lon="6.855620">
						<ele>1860</ele>
						<time>2022-01-06T17:30:46Z</time>
					</trkpt>
					<trkpt lat="44.699510" lon="6.855840">
						<ele>1860</ele>
						<time>2022-01-06T17:31:16Z</time>
					</trkpt>
					<trkpt lat="44.699350" lon="6.856080">
						<ele>1859</ele>
						<time>2022-01-06T17:31:48Z</time>
					</trkpt>
					<trkpt lat="44.699180" lon="6.856300">
						<ele>1858</ele>
						<time>2022-01-06T17:32:18Z</time>
					</trkpt>
					<trkpt lat="44.699020" lon="6.856540">
						<ele>1857</ele>
						<time>2022-01-06T17:32:50Z</time>
					</trkpt>
					<trkpt lat="44.698480" lon="6.857150">
						<ele>1856</ele>
						<time>2022-01-06T17:34:22Z</time>
					</trkpt>
					<trkpt lat="44.698300" lon="6.857370">
						<ele>1855</ele>
						<time>2022-01-06T17:34:54Z</time>
					</trkpt>
					<trkpt lat="44.697810" lon="6.858050">
						<ele>1858</ele>
						<time>2022-01-06T17:36:26Z</time>
					</trkpt>
					<trkpt lat="44.697640" lon="6.858270">
						<ele>1858</ele>
						<time>2022-01-06T17:36:57Z</time>
					</trkpt>
					<trkpt lat="44.697520" lon="6.858550">
						<ele>1859</ele>
						<time>2022-01-06T17:37:28Z</time>
					</trkpt>
					<trkpt lat="44.697670" lon="6.858780">
						<ele>1858</ele>
						<time>2022-01-06T17:37:57Z</time>
					</trkpt>
					<trkpt lat="44.697870" lon="6.858950">
						<ele>1856</ele>
						<time>2022-01-06T17:38:28Z</time>
					</trkpt>
					<trkpt lat="44.698090" lon="6.859010">
						<ele>1855</ele>
						<time>2022-01-06T17:38:58Z</time>
					</trkpt>
					<trkpt lat="44.698230" lon="6.859280">
						<ele>1857</ele>
						<time>2022-01-06T17:39:30Z</time>
					</trkpt>
					<trkpt lat="44.698170" lon="6.859590">
						<ele>1863</ele>
						<time>2022-01-06T17:40:00Z</time>
					</trkpt>
					<trkpt lat="44.698060" lon="6.859870">
						<ele>1867</ele>
						<time>2022-01-06T17:40:31Z</time>
					</trkpt>
					<trkpt lat="44.697990" lon="6.860170">
						<ele>1870</ele>
						<time>2022-01-06T17:41:01Z</time>
					</trkpt>
					<trkpt lat="44.697950" lon="6.860500">
						<ele>1872</ele>
						<time>2022-01-06T17:41:32Z</time>
					</trkpt>
					<trkpt lat="44.697940" lon="6.860810">
						<ele>1875</ele>
						<time>2022-01-06T17:42:02Z</time>
					</trkpt>
					<trkpt lat="44.697920" lon="6.861130">
						<ele>1881</ele>
						<time>2022-01-06T17:42:32Z</time>
					</trkpt>
					<trkpt lat="44.697950" lon="6.861460">
						<ele>1889</ele>
						<time>2022-01-06T17:43:04Z</time>
					</trkpt>
					<trkpt lat="44.698000" lon="6.861780">
						<ele>1897</ele>
						<time>2022-01-06T17:43:35Z</time>
					</trkpt>
					<trkpt lat="44.697970" lon="6.862220">
						<ele>1904</ele>
						<time>2022-01-06T17:44:17Z</time>
					</trkpt>
					<trkpt lat="44.697890" lon="6.862530">
						<ele>1907</ele>
						<time>2022-01-06T17:44:48Z</time>
					</trkpt>
					<trkpt lat="44.697890" lon="6.862850">
						<ele>1911</ele>
						<time>2022-01-06T17:45:19Z</time>
					</trkpt>
					<trkpt lat="44.697930" lon="6.863160">
						<ele>1916</ele>
						<time>2022-01-06T17:45:48Z</time>
					</trkpt>
					<trkpt lat="44.697910" lon="6.863480">
						<ele>1920</ele>
						<time>2022-01-06T17:46:19Z</time>
					</trkpt>
					<trkpt lat="44.698030" lon="6.863760">
						<ele>1925</ele>
						<time>2022-01-06T17:46:50Z</time>
					</trkpt>
					<trkpt lat="44.698260" lon="6.863810">
						<ele>1930</ele>
						<time>2022-01-06T17:47:21Z</time>
					</trkpt>
					<trkpt lat="44.698490" lon="6.863770">
						<ele>1934</ele>
						<time>2022-01-06T17:47:52Z</time>
					</trkpt>
					<trkpt lat="44.698650" lon="6.864000">
						<ele>1939</ele>
						<time>2022-01-06T17:48:22Z</time>
					</trkpt>
					<trkpt lat="44.698840" lon="6.864170">
						<ele>1946</ele>
						<time>2022-01-06T17:48:52Z</time>
					</trkpt>
					<trkpt lat="44.699030" lon="6.864350">
						<ele>1952</ele>
						<time>2022-01-06T17:49:23Z</time>
					</trkpt>
					<trkpt lat="44.699150" lon="6.864620">
						<ele>1957</ele>
						<time>2022-01-06T17:49:53Z</time>
					</trkpt>
					<trkpt lat="44.699450" lon="6.865100">
						<ele>1967</ele>
						<time>2022-01-06T17:50:54Z</time>
					</trkpt>
					<trkpt lat="44.699640" lon="6.865300">
						<ele>1971</ele>
						<time>2022-01-06T17:51:26Z</time>
					</trkpt>
					<trkpt lat="44.699750" lon="6.865580">
						<ele>1974</ele>
						<time>2022-01-06T17:51:56Z</time>
					</trkpt>
					<trkpt lat="44.699740" lon="6.865900">
						<ele>1977</ele>
						<time>2022-01-06T17:52:26Z</time>
					</trkpt>
					<trkpt lat="44.699630" lon="6.866170">
						<ele>1980</ele>
						<time>2022-01-06T17:52:56Z</time>
					</trkpt>
					<trkpt lat="44.699260" lon="6.866570">
						<ele>1980</ele>
						<time>2022-01-06T17:53:58Z</time>
					</trkpt>
					<trkpt lat="44.699060" lon="6.867030">
						<ele>1983</ele>
						<time>2022-01-06T17:54:49Z</time>
					</trkpt>
					<trkpt lat="44.699040" lon="6.867350">
						<ele>1987</ele>
						<time>2022-01-06T17:55:20Z</time>
					</trkpt>
					<trkpt lat="44.698990" lon="6.867660">
						<ele>1989</ele>
						<time>2022-01-06T17:55:50Z</time>
					</trkpt>
					<trkpt lat="44.698960" lon="6.867980">
						<ele>1992</ele>
						<time>2022-01-06T17:56:20Z</time>
					</trkpt>
					<trkpt lat="44.698980" lon="6.868290">
						<ele>1997</ele>
						<time>2022-01-06T17:56:50Z</time>
					</trkpt>
					<trkpt lat="44.698950" lon="6.868940">
						<ele>2003</ele>
						<time>2022-01-06T17:57:52Z</time>
					</trkpt>
					<trkpt lat="44.698840" lon="6.869230">
						<ele>2002</ele>
						<time>2022-01-06T17:58:23Z</time>
					</trkpt>
					<trkpt lat="44.698780" lon="6.869540">
						<ele>2003</ele>
						<time>2022-01-06T17:58:53Z</time>
					</trkpt>
					<trkpt lat="44.698780" lon="6.869860">
						<ele>2006</ele>
						<time>2022-01-06T17:59:24Z</time>
					</trkpt>
					<trkpt lat="44.698710" lon="6.870180">
						<ele>2008</ele>
						<time>2022-01-06T17:59:56Z</time>
					</trkpt>
					<trkpt lat="44.698630" lon="6.870800">
						<ele>2015</ele>
						<time>2022-01-06T18:00:55Z</time>
					</trkpt>
					<trkpt lat="44.698550" lon="6.871110">
						<ele>2018</ele>
						<time>2022-01-06T18:01:27Z</time>
					</trkpt>
					<trkpt lat="44.698380" lon="6.871320">
						<ele>2016</ele>
						<time>2022-01-06T18:01:57Z</time>
					</trkpt>
					<trkpt lat="44.698210" lon="6.871550">
						<ele>2015</ele>
						<time>2022-01-06T18:02:28Z</time>
					</trkpt>
					<trkpt lat="44.698030" lon="6.871760">
						<ele>2015</ele>
						<time>2022-01-06T18:02:59Z</time>
					</trkpt>
					<trkpt lat="44.697860" lon="6.871990">
						<ele>2016</ele>
						<time>2022-01-06T18:03:31Z</time>
					</trkpt>
					<trkpt lat="44.697690" lon="6.872210">
						<ele>2015</ele>
						<time>2022-01-06T18:04:02Z</time>
					</trkpt>
					<trkpt lat="44.697510" lon="6.872420">
						<ele>2013</ele>
						<time>2022-01-06T18:04:33Z</time>
					</trkpt>
					<trkpt lat="44.697310" lon="6.872580">
						<ele>2011</ele>
						<time>2022-01-06T18:05:04Z</time>
					</trkpt>
					<trkpt lat="44.697120" lon="6.872760">
						<ele>2010</ele>
						<time>2022-01-06T18:05:34Z</time>
					</trkpt>
					<trkpt lat="44.696940" lon="6.872970">
						<ele>2010</ele>
						<time>2022-01-06T18:06:05Z</time>
					</trkpt>
					<trkpt lat="44.696750" lon="6.873140">
						<ele>2008</ele>
						<time>2022-01-06T18:06:35Z</time>
					</trkpt>
					<trkpt lat="44.696560" lon="6.873330">
						<ele>2007</ele>
						<time>2022-01-06T18:07:07Z</time>
					</trkpt>
					<trkpt lat="44.696390" lon="6.873540">
						<ele>2007</ele>
						<time>2022-01-06T18:07:37Z</time>
					</trkpt>
					<trkpt lat="44.696230" lon="6.873760">
						<ele>2008</ele>
						<time>2022-01-06T18:08:07Z</time>
					</trkpt>
					<trkpt lat="44.696080" lon="6.874010">
						<ele>2010</ele>
						<time>2022-01-06T18:08:38Z</time>
					</trkpt>
					<trkpt lat="44.695960" lon="6.874280">
						<ele>2012</ele>
						<time>2022-01-06T18:09:08Z</time>
					</trkpt>
					<trkpt lat="44.695840" lon="6.874540">
						<ele>2014</ele>
						<time>2022-01-06T18:09:37Z</time>
					</trkpt>
					<trkpt lat="44.695860" lon="6.874860">
						<ele>2021</ele>
						<time>2022-01-06T18:10:08Z</time>
					</trkpt>
					<trkpt lat="44.696380" lon="6.873530">
						<ele>2007</ele>
						<time>2022-01-06T18:12:32Z</time>
					</trkpt>
					<trkpt lat="44.696760" lon="6.873150">
						<ele>2008</ele>
						<time>2022-01-06T18:13:34Z</time>
					</trkpt>
					<trkpt lat="44.696950" lon="6.872970">
						<ele>2010</ele>
						<time>2022-01-06T18:14:05Z</time>
					</trkpt>
					<trkpt lat="44.697110" lon="6.872730">
						<ele>2009</ele>
						<time>2022-01-06T18:14:36Z</time>
					</trkpt>
					<trkpt lat="44.697300" lon="6.872540">
						<ele>2010</ele>
						<time>2022-01-06T18:15:07Z</time>
					</trkpt>
					<trkpt lat="44.697490" lon="6.872350">
						<ele>2012</ele>
						<time>2022-01-06T18:15:38Z</time>
					</trkpt>
					<trkpt lat="44.697660" lon="6.872150">
						<ele>2013</ele>
						<time>2022-01-06T18:16:08Z</time>
					</trkpt>
					<trkpt lat="44.697850" lon="6.871960">
						<ele>2015</ele>
						<time>2022-01-06T18:16:39Z</time>
					</trkpt>
					<trkpt lat="44.697980" lon="6.871700">
						<ele>2013</ele>
						<time>2022-01-06T18:17:09Z</time>
					</trkpt>
					<trkpt lat="44.698160" lon="6.871490">
						<ele>2013</ele>
						<time>2022-01-06T18:17:40Z</time>
					</trkpt>
					<trkpt lat="44.698370" lon="6.871370">
						<ele>2016</ele>
						<time>2022-01-06T18:18:10Z</time>
					</trkpt>
					<trkpt lat="44.698570" lon="6.871210">
						<ele>2020</ele>
						<time>2022-01-06T18:18:41Z</time>
					</trkpt>
					<trkpt lat="44.698770" lon="6.871050">
						<ele>2024</ele>
						<time>2022-01-06T18:19:12Z</time>
					</trkpt>
					<trkpt lat="44.698890" lon="6.870770">
						<ele>2023</ele>
						<time>2022-01-06T18:19:43Z</time>
					</trkpt>
					<trkpt lat="44.699040" lon="6.870530">
						<ele>2025</ele>
						<time>2022-01-06T18:20:13Z</time>
					</trkpt>
					<trkpt lat="44.699160" lon="6.870260">
						<ele>2025</ele>
						<time>2022-01-06T18:20:43Z</time>
					</trkpt>
					<trkpt lat="44.699300" lon="6.870000">
						<ele>2027</ele>
						<time>2022-01-06T18:21:14Z</time>
					</trkpt>
					<trkpt lat="44.699380" lon="6.869700">
						<ele>2027</ele>
						<time>2022-01-06T18:21:45Z</time>
					</trkpt>
					<trkpt lat="44.699420" lon="6.869380">
						<ele>2025</ele>
						<time>2022-01-06T18:22:15Z</time>
					</trkpt>
					<trkpt lat="44.699560" lon="6.869130">
						<ele>2028</ele>
						<time>2022-01-06T18:22:46Z</time>
					</trkpt>
					<trkpt lat="44.699740" lon="6.868950">
						<ele>2032</ele>
						<time>2022-01-06T18:23:15Z</time>
					</trkpt>
					<trkpt lat="44.699920" lon="6.868750">
						<ele>2037</ele>
						<time>2022-01-06T18:23:46Z</time>
					</trkpt>
					<trkpt lat="44.700040" lon="6.868480">
						<ele>2037</ele>
						<time>2022-01-06T18:24:16Z</time>
					</trkpt>
					<trkpt lat="44.700260" lon="6.868370">
						<ele>2041</ele>
						<time>2022-01-06T18:24:47Z</time>
					</trkpt>
					<trkpt lat="44.700410" lon="6.868130">
						<ele>2042</ele>
						<time>2022-01-06T18:25:17Z</time>
					</trkpt>
					<trkpt lat="44.700560" lon="6.867910">
						<ele>2043</ele>
						<time>2022-01-06T18:25:46Z</time>
					</trkpt>
					<trkpt lat="44.700680" lon="6.867630">
						<ele>2044</ele>
						<time>2022-01-06T18:26:17Z</time>
					</trkpt>
					<trkpt lat="44.700790" lon="6.867350">
						<ele>2044</ele>
						<time>2022-01-06T18:26:48Z</time>
					</trkpt>
					<trkpt lat="44.701140" lon="6.866970">
						<ele>2046</ele>
						<time>2022-01-06T18:27:47Z</time>
					</trkpt>
					<trkpt lat="44.701290" lon="6.866720">
						<ele>2046</ele>
						<time>2022-01-06T18:28:18Z</time>
					</trkpt>
					<trkpt lat="44.701470" lon="6.866520">
						<ele>2048</ele>
						<time>2022-01-06T18:28:48Z</time>
					</trkpt>
					<trkpt lat="44.701690" lon="6.866410">
						<ele>2053</ele>
						<time>2022-01-06T18:29:19Z</time>
					</trkpt>
					<trkpt lat="44.701780" lon="6.866110">
						<ele>2049</ele>
						<time>2022-01-06T18:29:50Z</time>
					</trkpt>
					<trkpt lat="44.701970" lon="6.865930">
						<ele>2049</ele>
						<time>2022-01-06T18:30:21Z</time>
					</trkpt>
					<trkpt lat="44.702060" lon="6.865640">
						<ele>2045</ele>
						<time>2022-01-06T18:30:51Z</time>
					</trkpt>
					<trkpt lat="44.702290" lon="6.865120">
						<ele>2041</ele>
						<time>2022-01-06T18:31:49Z</time>
					</trkpt>
					<trkpt lat="44.702360" lon="6.864810">
						<ele>2039</ele>
						<time>2022-01-06T18:32:20Z</time>
					</trkpt>
					<trkpt lat="44.702460" lon="6.864520">
						<ele>2037</ele>
						<time>2022-01-06T18:32:50Z</time>
					</trkpt>
					<trkpt lat="44.702530" lon="6.864200">
						<ele>2035</ele>
						<time>2022-01-06T18:33:22Z</time>
					</trkpt>
					<trkpt lat="44.702580" lon="6.863890">
						<ele>2032</ele>
						<time>2022-01-06T18:33:52Z</time>
					</trkpt>
					<trkpt lat="44.702750" lon="6.863670">
						<ele>2032</ele>
						<time>2022-01-06T18:34:23Z</time>
					</trkpt>
					<trkpt lat="44.703140" lon="6.863340">
						<ele>2035</ele>
						<time>2022-01-06T18:35:24Z</time>
					</trkpt>
					<trkpt lat="44.703350" lon="6.863210">
						<ele>2037</ele>
						<time>2022-01-06T18:35:54Z</time>
					</trkpt>
					<trkpt lat="44.703450" lon="6.862910">
						<ele>2035</ele>
						<time>2022-01-06T18:36:26Z</time>
					</trkpt>
					<trkpt lat="44.703560" lon="6.862630">
						<ele>2033</ele>
						<time>2022-01-06T18:36:56Z</time>
					</trkpt>
					<trkpt lat="44.703720" lon="6.862390">
						<ele>2032</ele>
						<time>2022-01-06T18:37:27Z</time>
					</trkpt>
					<trkpt lat="44.703810" lon="6.862100">
						<ele>2029</ele>
						<time>2022-01-06T18:37:57Z</time>
					</trkpt>
					<trkpt lat="44.703920" lon="6.861810">
						<ele>2026</ele>
						<time>2022-01-06T18:38:29Z</time>
					</trkpt>
					<trkpt lat="44.704040" lon="6.861550">
						<ele>2025</ele>
						<time>2022-01-06T18:38:58Z</time>
					</trkpt>
					<trkpt lat="44.704190" lon="6.861300">
						<ele>2025</ele>
						<time>2022-01-06T18:39:29Z</time>
					</trkpt>
					<trkpt lat="44.704350" lon="6.861060">
						<ele>2025</ele>
						<time>2022-01-06T18:40:00Z</time>
					</trkpt>
					<trkpt lat="44.704480" lon="6.860800">
						<ele>2023</ele>
						<time>2022-01-06T18:40:30Z</time>
					</trkpt>
					<trkpt lat="44.704650" lon="6.860590">
						<ele>2021</ele>
						<time>2022-01-06T18:41:01Z</time>
					</trkpt>
					<trkpt lat="44.704800" lon="6.860340">
						<ele>2018</ele>
						<time>2022-01-06T18:41:32Z</time>
					</trkpt>
					<trkpt lat="44.704980" lon="6.860130">
						<ele>2017</ele>
						<time>2022-01-06T18:42:03Z</time>
					</trkpt>
					<trkpt lat="44.705170" lon="6.859950">
						<ele>2016</ele>
						<time>2022-01-06T18:42:33Z</time>
					</trkpt>
					<trkpt lat="44.705690" lon="6.859310">
						<ele>2008</ele>
						<time>2022-01-06T18:44:06Z</time>
					</trkpt>
					<trkpt lat="44.705860" lon="6.859090">
						<ele>2006</ele>
						<time>2022-01-06T18:44:36Z</time>
					</trkpt>
					<trkpt lat="44.706060" lon="6.858940">
						<ele>2003</ele>
						<time>2022-01-06T18:45:07Z</time>
					</trkpt>
					<trkpt lat="44.706290" lon="6.858890">
						<ele>2004</ele>
						<time>2022-01-06T18:45:38Z</time>
					</trkpt>
					<trkpt lat="44.706520" lon="6.858850">
						<ele>2005</ele>
						<time>2022-01-06T18:46:09Z</time>
					</trkpt>
					<trkpt lat="44.706730" lon="6.858720">
						<ele>2004</ele>
						<time>2022-01-06T18:46:39Z</time>
					</trkpt>
					<trkpt lat="44.706920" lon="6.858540">
						<ele>2001</ele>
						<time>2022-01-06T18:47:10Z</time>
					</trkpt>
					<trkpt lat="44.707740" lon="6.857960">
						<ele>1995</ele>
						<time>2022-01-06T18:49:12Z</time>
					</trkpt>
					<trkpt lat="44.707940" lon="6.857810">
						<ele>1994</ele>
						<time>2022-01-06T18:49:43Z</time>
					</trkpt>
					<trkpt lat="44.708120" lon="6.857590">
						<ele>1991</ele>
						<time>2022-01-06T18:50:14Z</time>
					</trkpt>
					<trkpt lat="44.708270" lon="6.857360">
						<ele>1988</ele>
						<time>2022-01-06T18:50:44Z</time>
					</trkpt>
					<trkpt lat="44.708410" lon="6.857110">
						<ele>1985</ele>
						<time>2022-01-06T18:51:14Z</time>
					</trkpt>
					<trkpt lat="44.708560" lon="6.856870">
						<ele>1982</ele>
						<time>2022-01-06T18:51:44Z</time>
					</trkpt>
					<trkpt lat="44.708700" lon="6.856610">
						<ele>1978</ele>
						<time>2022-01-06T18:52:15Z</time>
					</trkpt>
					<trkpt lat="44.708840" lon="6.856360">
						<ele>1974</ele>
						<time>2022-01-06T18:52:46Z</time>
					</trkpt>
					<trkpt lat="44.708960" lon="6.856080">
						<ele>1969</ele>
						<time>2022-01-06T18:53:17Z</time>
					</trkpt>
					<trkpt lat="44.709080" lon="6.855810">
						<ele>1966</ele>
						<time>2022-01-06T18:53:47Z</time>
					</trkpt>
					<trkpt lat="44.709250" lon="6.855590">
						<ele>1963</ele>
						<time>2022-01-06T18:54:18Z</time>
					</trkpt>
					<trkpt lat="44.709420" lon="6.855370">
						<ele>1959</ele>
						<time>2022-01-06T18:54:48Z</time>
					</trkpt>
					<trkpt lat="44.709570" lon="6.855130">
						<ele>1955</ele>
						<time>2022-01-06T18:55:19Z</time>
					</trkpt>
					<trkpt lat="44.709750" lon="6.854920">
						<ele>1950</ele>
						<time>2022-01-06T18:55:50Z</time>
					</trkpt>
					<trkpt lat="44.709910" lon="6.854690">
						<ele>1944</ele>
						<time>2022-01-06T18:56:20Z</time>
					</trkpt>
					<trkpt lat="44.710110" lon="6.854530">
						<ele>1940</ele>
						<time>2022-01-06T18:56:51Z</time>
					</trkpt>
					<trkpt lat="44.710320" lon="6.854380">
						<ele>1936</ele>
						<time>2022-01-06T18:57:23Z</time>
					</trkpt>
					<trkpt lat="44.710520" lon="6.854240">
						<ele>1933</ele>
						<time>2022-01-06T18:57:52Z</time>
					</trkpt>
					<trkpt lat="44.710710" lon="6.854070">
						<ele>1929</ele>
						<time>2022-01-06T18:58:22Z</time>
					</trkpt>
					<trkpt lat="44.710900" lon="6.853900">
						<ele>1926</ele>
						<time>2022-01-06T18:58:52Z</time>
					</trkpt>
					<trkpt lat="44.711090" lon="6.853710">
						<ele>1921</ele>
						<time>2022-01-06T18:59:24Z</time>
					</trkpt>
					<trkpt lat="44.711180" lon="6.853430">
						<ele>1914</ele>
						<time>2022-01-06T18:59:53Z</time>
					</trkpt>
					<trkpt lat="44.711410" lon="6.853370">
						<ele>1914</ele>
						<time>2022-01-06T19:00:24Z</time>
					</trkpt>
					<trkpt lat="44.711590" lon="6.853180">
						<ele>1909</ele>
						<time>2022-01-06T19:00:54Z</time>
					</trkpt>
					<trkpt lat="44.711800" lon="6.853050">
						<ele>1905</ele>
						<time>2022-01-06T19:01:25Z</time>
					</trkpt>
					<trkpt lat="44.712000" lon="6.852900">
						<ele>1899</ele>
						<time>2022-01-06T19:01:55Z</time>
					</trkpt>
					<trkpt lat="44.712230" lon="6.852830">
						<ele>1895</ele>
						<time>2022-01-06T19:02:26Z</time>
					</trkpt>
					<trkpt lat="44.712450" lon="6.852780">
						<ele>1892</ele>
						<time>2022-01-06T19:02:56Z</time>
					</trkpt>
					<trkpt lat="44.712660" lon="6.852880">
						<ele>1893</ele>
						<time>2022-01-06T19:03:26Z</time>
					</trkpt>
					<trkpt lat="44.712900" lon="6.852850">
						<ele>1889</ele>
						<time>2022-01-06T19:03:58Z</time>
					</trkpt>
					<trkpt lat="44.713140" lon="6.852830">
						<ele>1884</ele>
						<time>2022-01-06T19:04:30Z</time>
					</trkpt>
					<trkpt lat="44.713370" lon="6.852760">
						<ele>1878</ele>
						<time>2022-01-06T19:05:01Z</time>
					</trkpt>
					<trkpt lat="44.713580" lon="6.852630">
						<ele>1870</ele>
						<time>2022-01-06T19:05:32Z</time>
					</trkpt>
					<trkpt lat="44.713810" lon="6.852610">
						<ele>1868</ele>
						<time>2022-01-06T19:06:03Z</time>
					</trkpt>
					<trkpt lat="44.714040" lon="6.852610">
						<ele>1866</ele>
						<time>2022-01-06T19:06:33Z</time>
					</trkpt>
					<trkpt lat="44.714240" lon="6.852460">
						<ele>1859</ele>
						<time>2022-01-06T19:07:04Z</time>
					</trkpt>
					<trkpt lat="44.714440" lon="6.852260">
						<ele>1852</ele>
						<time>2022-01-06T19:07:36Z</time>
					</trkpt>
					<trkpt lat="44.714660" lon="6.852190">
						<ele>1849</ele>
						<time>2022-01-06T19:08:06Z</time>
					</trkpt>
					<trkpt lat="44.714880" lon="6.852100">
						<ele>1845</ele>
						<time>2022-01-06T19:08:37Z</time>
					</trkpt>
					<trkpt lat="44.715080" lon="6.851950">
						<ele>1840</ele>
						<time>2022-01-06T19:09:07Z</time>
					</trkpt>
					<trkpt lat="44.715260" lon="6.851750">
						<ele>1834</ele>
						<time>2022-01-06T19:09:38Z</time>
					</trkpt>
					<trkpt lat="44.715650" lon="6.851410">
						<ele>1827</ele>
						<time>2022-01-06T19:10:39Z</time>
					</trkpt>
					<trkpt lat="44.715860" lon="6.851300">
						<ele>1826</ele>
						<time>2022-01-06T19:11:09Z</time>
					</trkpt>
					<trkpt lat="44.716290" lon="6.851560">
						<ele>1830</ele>
						<time>2022-01-06T19:12:11Z</time>
					</trkpt>
					<trkpt lat="44.716490" lon="6.851730">
						<ele>1834</ele>
						<time>2022-01-06T19:12:43Z</time>
					</trkpt>
					<trkpt lat="44.716640" lon="6.851970">
						<ele>1839</ele>
						<time>2022-01-06T19:13:13Z</time>
					</trkpt>
					<trkpt lat="44.716770" lon="6.852230">
						<ele>1843</ele>
						<time>2022-01-06T19:13:43Z</time>
					</trkpt>
					<trkpt lat="44.716950" lon="6.852440">
						<ele>1846</ele>
						<time>2022-01-06T19:14:14Z</time>
					</trkpt>
					<trkpt lat="44.717170" lon="6.852540">
						<ele>1846</ele>
						<time>2022-01-06T19:14:45Z</time>
					</trkpt>
					<trkpt lat="44.717390" lon="6.852660">
						<ele>1848</ele>
						<time>2022-01-06T19:15:17Z</time>
					</trkpt>
					<trkpt lat="44.717610" lon="6.852730">
						<ele>1848</ele>
						<time>2022-01-06T19:15:47Z</time>
					</trkpt>
					<trkpt lat="44.717800" lon="6.852920">
						<ele>1851</ele>
						<time>2022-01-06T19:16:18Z</time>
					</trkpt>
					<trkpt lat="44.718000" lon="6.853090">
						<ele>1853</ele>
						<time>2022-01-06T19:16:49Z</time>
					</trkpt>
					<trkpt lat="44.718200" lon="6.853240">
						<ele>1854</ele>
						<time>2022-01-06T19:17:19Z</time>
					</trkpt>
					<trkpt lat="44.718420" lon="6.853330">
						<ele>1854</ele>
						<time>2022-01-06T19:17:50Z</time>
					</trkpt>
					<trkpt lat="44.718620" lon="6.853470">
						<ele>1856</ele>
						<time>2022-01-06T19:18:20Z</time>
					</trkpt>
					<trkpt lat="44.718720" lon="6.853770">
						<ele>1862</ele>
						<time>2022-01-06T19:18:51Z</time>
					</trkpt>
					<trkpt lat="44.718880" lon="6.854000">
						<ele>1865</ele>
						<time>2022-01-06T19:19:21Z</time>
					</trkpt>
					<trkpt lat="44.719000" lon="6.854270">
						<ele>1869</ele>
						<time>2022-01-06T19:19:52Z</time>
					</trkpt>
					<trkpt lat="44.719150" lon="6.854530">
						<ele>1873</ele>
						<time>2022-01-06T19:20:23Z</time>
					</trkpt>
					<trkpt lat="44.719530" lon="6.855340">
						<ele>1886</ele>
						<time>2022-01-06T19:21:55Z</time>
					</trkpt>
					<trkpt lat="44.719700" lon="6.855550">
						<ele>1888</ele>
						<time>2022-01-06T19:22:26Z</time>
					</trkpt>
					<trkpt lat="44.719910" lon="6.855720">
						<ele>1887</ele>
						<time>2022-01-06T19:22:58Z</time>
					</trkpt>
					<trkpt lat="44.720140" lon="6.855680">
						<ele>1883</ele>
						<time>2022-01-06T19:23:29Z</time>
					</trkpt>
					<trkpt lat="44.720360" lon="6.855760">
						<ele>1883</ele>
						<time>2022-01-06T19:23:59Z</time>
					</trkpt>
					<trkpt lat="44.720580" lon="6.855890">
						<ele>1884</ele>
						<time>2022-01-06T19:24:31Z</time>
					</trkpt>
					<trkpt lat="44.720750" lon="6.856090">
						<ele>1886</ele>
						<time>2022-01-06T19:25:01Z</time>
					</trkpt>
					<trkpt lat="44.720950" lon="6.856280">
						<ele>1886</ele>
						<time>2022-01-06T19:25:33Z</time>
					</trkpt>
					<trkpt lat="44.721310" lon="6.856670">
						<ele>1885</ele>
						<time>2022-01-06T19:26:33Z</time>
					</trkpt>
					<trkpt lat="44.721490" lon="6.856870">
						<ele>1883</ele>
						<time>2022-01-06T19:27:04Z</time>
					</trkpt>
					<trkpt lat="44.721680" lon="6.857040">
						<ele>1880</ele>
						<time>2022-01-06T19:27:34Z</time>
					</trkpt>
					<trkpt lat="44.721850" lon="6.857260">
						<ele>1880</ele>
						<time>2022-01-06T19:28:05Z</time>
					</trkpt>
					<trkpt lat="44.722070" lon="6.857350">
						<ele>1878</ele>
						<time>2022-01-06T19:28:35Z</time>
					</trkpt>
					<trkpt lat="44.722300" lon="6.857450">
						<ele>1876</ele>
						<time>2022-01-06T19:29:08Z</time>
					</trkpt>
					<trkpt lat="44.722460" lon="6.857700">
						<ele>1879</ele>
						<time>2022-01-06T19:29:40Z</time>
					</trkpt>
					<trkpt lat="44.722560" lon="6.857980">
						<ele>1883</ele>
						<time>2022-01-06T19:30:09Z</time>
					</trkpt>
					<trkpt lat="44.722590" lon="6.858300">
						<ele>1888</ele>
						<time>2022-01-06T19:30:40Z</time>
					</trkpt>
					<trkpt lat="44.722650" lon="6.858620">
						<ele>1893</ele>
						<time>2022-01-06T19:31:11Z</time>
					</trkpt>
					<trkpt lat="44.722760" lon="6.858910">
						<ele>1895</ele>
						<time>2022-01-06T19:31:42Z</time>
					</trkpt>
					<trkpt lat="44.722930" lon="6.859110">
						<ele>1893</ele>
						<time>2022-01-06T19:32:12Z</time>
					</trkpt>
					<trkpt lat="44.723100" lon="6.859330">
						<ele>1891</ele>
						<time>2022-01-06T19:32:43Z</time>
					</trkpt>
					<trkpt lat="44.723290" lon="6.859530">
						<ele>1888</ele>
						<time>2022-01-06T19:33:14Z</time>
					</trkpt>
					<trkpt lat="44.723370" lon="6.859850">
						<ele>1891</ele>
						<time>2022-01-06T19:33:47Z</time>
					</trkpt>
					<trkpt lat="44.723420" lon="6.860160">
						<ele>1894</ele>
						<time>2022-01-06T19:34:17Z</time>
					</trkpt>
					<trkpt lat="44.723510" lon="6.860450">
						<ele>1895</ele>
						<time>2022-01-06T19:34:47Z</time>
					</trkpt>
					<trkpt lat="44.723670" lon="6.860680">
						<ele>1894</ele>
						<time>2022-01-06T19:35:17Z</time>
					</trkpt>
					<trkpt lat="44.723850" lon="6.860470">
						<ele>1891</ele>
						<time>2022-01-06T19:35:48Z</time>
					</trkpt>
					<trkpt lat="44.724080" lon="6.860480">
						<ele>1888</ele>
						<time>2022-01-06T19:36:19Z</time>
					</trkpt>
					<trkpt lat="44.724310" lon="6.860470">
						<ele>1892</ele>
						<time>2022-01-06T19:36:50Z</time>
					</trkpt>
					<trkpt lat="44.724530" lon="6.860400">
						<ele>1899</ele>
						<time>2022-01-06T19:37:20Z</time>
					</trkpt>
					<trkpt lat="44.724720" lon="6.860400">
						<ele>1906</ele>
						<time>2022-01-06T19:37:45Z</time>
					</trkpt>
					<trkpt lat="44.724770" lon="6.860710">
						<ele>1907</ele>
						<time>2022-01-06T19:38:15Z</time>
					</trkpt>
					<trkpt lat="44.724840" lon="6.861030">
						<ele>1910</ele>
						<time>2022-01-06T19:38:47Z</time>
					</trkpt>
					<trkpt lat="44.724910" lon="6.861330">
						<ele>1913</ele>
						<time>2022-01-06T19:39:17Z</time>
					</trkpt>
					<trkpt lat="44.724950" lon="6.861650">
						<ele>1915</ele>
						<time>2022-01-06T19:39:48Z</time>
					</trkpt>
					<trkpt lat="44.724960" lon="6.862090">
						<ele>1915</ele>
						<time>2022-01-06T19:40:30Z</time>
					</trkpt>
					<trkpt lat="44.725080" lon="6.862790">
						<ele>1917</ele>
						<time>2022-01-06T19:41:38Z</time>
					</trkpt>
					<trkpt lat="44.725010" lon="6.863500">
						<ele>1915</ele>
						<time>2022-01-06T19:42:46Z</time>
					</trkpt>
					<trkpt lat="44.724940" lon="6.864070">
						<ele>1915</ele>
						<time>2022-01-06T19:43:41Z</time>
					</trkpt>
					<trkpt lat="44.724910" lon="6.864540">
						<ele>1915</ele>
						<time>2022-01-06T19:44:26Z</time>
					</trkpt>
					<trkpt lat="44.724850" lon="6.864950">
						<ele>1915</ele>
						<time>2022-01-06T19:45:05Z</time>
					</trkpt>
					<trkpt lat="44.724810" lon="6.865340">
						<ele>1913</ele>
						<time>2022-01-06T19:45:43Z</time>
					</trkpt>
					</trkseg>
				</trk>
			</gpx>